Time;durP1;ratioP1;P1;durP2;ratioP2;P2;SDS_P1;SDS_P2;PMS_P1;PMS_P2;Temp;Humidity;BMP_temperature;BMP_pressure;BME280_temperature;BME280_humidity;BME280_pressure;Samples;Min_cycle;Max_cycle;Signal;HPM_P1;HPM_P2
2022/10/22 00:00:47;;;;;;;15.73;9.05;;;12.50;99.90;;;;;;6244136;22;20073;-82
2022/10/22 00:03:13;;;;;;;17.15;9.68;;;12.50;99.90;;;;;;6244332;22;20020;-82
2022/10/22 00:05:39;;;;;;;17.35;9.50;;;12.50;99.90;;;;;;6272151;22;20332;-81
2022/10/22 00:08:04;;;;;;;20.60;8.90;;;12.50;99.90;;;;;;6245155;22;20060;-82
2022/10/22 00:10:30;;;;;;;14.98;9.50;;;12.50;99.90;;;;;;6271673;22;20133;-82
2022/10/22 00:12:55;;;;;;;19.27;9.85;;;12.50;99.90;;;;;;6244788;22;20081;-81
2022/10/22 00:15:21;;;;;;;18.77;9.98;;;12.40;99.90;;;;;;6244698;22;20022;-82
2022/10/22 00:17:48;;;;;;;16.70;10.35;;;12.40;99.90;;;;;;6272179;22;20015;-81
2022/10/22 00:20:14;;;;;;;17.83;10.10;;;12.40;99.90;;;;;;6244607;22;20020;-81
2022/10/22 00:22:40;;;;;;;20.35;11.02;;;12.40;99.90;;;;;;6271613;22;20060;-82
2022/10/22 00:25:05;;;;;;;17.17;9.77;;;12.30;99.90;;;;;;6271419;22;20047;-82
2022/10/22 00:27:31;;;;;;;19.65;9.48;;;12.30;99.90;;;;;;6244260;22;20457;-82
2022/10/22 00:29:57;;;;;;;16.65;9.35;;;12.30;99.90;;;;;;6271820;22;20082;-82
2022/10/22 00:32:22;;;;;;;18.35;9.13;;;12.30;99.90;;;;;;6244913;22;20054;-82
2022/10/22 00:34:48;;;;;;;16.45;9.55;;;12.20;99.90;;;;;;6271829;22;20058;-82
2022/10/22 00:37:14;;;;;;;18.02;9.63;;;12.20;99.90;;;;;;6271615;22;20019;-82
2022/10/22 00:39:39;;;;;;;20.35;9.50;;;12.20;99.90;;;;;;6244137;22;20015;-82
2022/10/22 00:42:05;;;;;;;17.17;9.40;;;12.10;99.90;;;;;;6244503;22;20066;-82
2022/10/22 00:44:58;;;;;;;17.65;10.15;;;12.10;99.90;;;;;;6271201;22;20062;-82
2022/10/22 00:47:28;;;;;;;19.48;10.02;;;12.10;99.90;;;;;;6272237;22;20008;-81
2022/10/22 00:49:56;;;;;;;23.08;10.93;;;12.10;99.90;;;;;;6244406;22;20012;-82
2022/10/22 00:52:22;;;;;;;19.33;10.55;;;12.10;99.90;;;;;;6271870;22;20016;-81
2022/10/22 00:54:49;;;;;;;16.80;10.32;;;12.10;99.90;;;;;;6271644;22;20004;-81
2022/10/22 00:57:15;;;;;;;17.50;10.43;;;12.10;99.90;;;;;;6243301;22;20019;-81
2022/10/22 00:59:41;;;;;;;14.52;9.10;;;12.10;99.90;;;;;;6244217;22;20098;-81
2022/10/22 01:02:07;;;;;;;16.85;9.85;;;12.00;99.90;;;;;;6243899;22;20059;-81
2022/10/22 01:04:32;;;;;;;17.23;9.32;;;12.10;99.90;;;;;;6271765;22;20007;-82
2022/10/22 01:06:58;;;;;;;15.07;9.52;;;12.00;99.90;;;;;;6244445;22;20030;-81
2022/10/22 01:09:45;;;;;;;17.15;9.52;;;12.10;99.90;;;;;;6271744;22;20016;-81
2022/10/22 01:12:14;;;;;;;16.10;8.73;;;12.10;99.90;;;;;;6243761;22;20019;-82
2022/10/22 01:15:11;;;;;;;18.70;10.43;;;12.10;99.90;;;;;;6244904;22;20018;-81
2022/10/22 01:17:45;;;;;;;16.73;9.85;;;12.10;99.90;;;;;;6244437;22;20451;-82
2022/10/22 01:20:29;;;;;;;17.50;10.02;;;12.10;99.90;;;;;;6218859;22;20535;-82
2022/10/22 01:23:15;;;;;;;18.48;10.05;;;12.00;99.90;;;;;;6273249;22;20015;-81
2022/10/22 01:26:04;;;;;;;15.00;9.48;;;12.00;99.90;;;;;;6273614;22;20043;-81
2022/10/22 01:28:46;;;;;;;17.52;9.48;;;12.10;99.90;;;;;;6249301;22;20019;-81
2022/10/22 01:31:14;;;;;;;20.52;10.68;;;12.10;99.90;;;;;;6246180;22;20019;-82
2022/10/22 01:33:41;;;;;;;17.60;9.68;;;12.10;99.90;;;;;;6245832;22;20042;-80
2022/10/22 01:36:07;;;;;;;18.13;9.55;;;12.10;99.90;;;;;;6245257;22;20076;-81
2022/10/22 01:38:33;;;;;;;15.77;10.05;;;12.10;99.90;;;;;;6272965;22;20435;-81
2022/10/22 01:40:59;;;;;;;24.25;10.95;;;12.10;99.90;;;;;;6272976;22;20015;-81
2022/10/22 01:43:28;;;;;;;18.63;9.80;;;12.10;99.90;;;;;;6245822;22;20016;-81
2022/10/22 01:45:59;;;;;;;17.67;10.80;;;12.10;99.90;;;;;;6246236;22;20019;-81
2022/10/22 01:48:43;;;;;;;18.80;10.05;;;12.10;99.90;;;;;;6246414;22;20012;-81
2022/10/22 01:51:32;;;;;;;18.77;9.88;;;12.10;99.90;;;;;;6245816;22;20012;-82
2022/10/22 01:54:16;;;;;;;17.88;10.02;;;11.90;99.90;;;;;;6252411;22;20008;-81
2022/10/22 01:56:50;;;;;;;17.48;9.88;;;12.10;99.90;;;;;;6272492;22;20012;-81
2022/10/22 01:59:16;;;;;;;19.90;9.80;;;12.10;99.90;;;;;;6245804;22;20020;-82
2022/10/22 02:02:01;;;;;;;18.65;9.82;;;12.10;99.90;;;;;;6245871;22;20007;-82
2022/10/22 02:04:38;;;;;;;20.45;10.43;;;12.10;99.90;;;;;;6245208;22;20019;-81
2022/10/22 02:07:07;;;;;;;17.27;10.02;;;12.10;99.90;;;;;;6246182;22;20016;-82
2022/10/22 02:09:34;;;;;;;23.50;11.30;;;12.10;99.90;;;;;;6244664;22;20041;-81
2022/10/22 02:12:02;;;;;;;21.95;11.27;;;12.10;99.90;;;;;;6272497;22;20016;-81
2022/10/22 02:14:30;;;;;;;18.25;10.40;;;12.10;99.90;;;;;;6246606;22;20008;-81
2022/10/22 02:16:57;;;;;;;21.00;11.55;;;12.10;99.90;;;;;;6273465;22;20011;-81
2022/10/22 02:19:34;;;;;;;20.48;10.90;;;12.10;99.90;;;;;;6246228;22;20034;-81
2022/10/22 02:22:00;;;;;;;16.98;11.15;;;12.00;99.90;;;;;;6246142;22;20047;-82
2022/10/22 02:24:26;;;;;;;27.33;10.98;;;12.00;99.90;;;;;;6244644;22;20023;-82
2022/10/22 02:27:28;;;;;;;19.05;11.50;;;12.00;99.90;;;;;;6273011;22;20013;-81
2022/10/22 02:29:57;;;;;;;19.58;11.07;;;12.10;99.90;;;;;;6273189;22;20317;-81
2022/10/22 02:32:29;;;;;;;18.88;11.23;;;12.00;99.90;;;;;;6272342;22;20043;-82
2022/10/22 02:34:55;;;;;;;21.88;12.05;;;12.10;99.90;;;;;;6245063;22;20012;-81
2022/10/22 02:37:23;;;;;;;20.55;11.38;;;12.10;99.90;;;;;;6272167;22;20022;-81
2022/10/22 02:39:51;;;;;;;19.40;11.40;;;12.10;99.90;;;;;;6272269;22;20020;-81
2022/10/22 02:42:17;;;;;;;20.75;11.45;;;12.00;99.90;;;;;;6245198;22;20590;-81
2022/10/22 02:44:43;;;;;;;18.75;10.55;;;12.00;99.90;;;;;;6245573;22;20018;-81
2022/10/22 02:47:08;;;;;;;21.75;12.15;;;12.10;99.90;;;;;;6245652;22;20028;-81
2022/10/22 02:49:34;;;;;;;23.27;12.25;;;12.10;99.90;;;;;;6273094;22;20015;-82
2022/10/22 02:52:00;;;;;;;21.85;11.75;;;12.00;99.90;;;;;;6272636;22;20098;-82
2022/10/22 02:54:25;;;;;;;18.80;11.60;;;12.00;99.90;;;;;;6244598;22;20020;-81
2022/10/22 02:56:51;;;;;;;22.88;12.10;;;12.00;99.90;;;;;;6244913;22;20015;-81
2022/10/22 02:59:17;;;;;;;21.85;12.68;;;12.00;99.90;;;;;;6272778;22;20061;-81
2022/10/22 03:01:42;;;;;;;22.58;13.02;;;12.10;99.90;;;;;;6244902;22;20050;-82
2022/10/22 03:04:08;;;;;;;21.75;12.60;;;12.00;99.90;;;;;;6272537;22;20062;-81
2022/10/22 03:06:34;;;;;;;20.77;13.02;;;12.00;99.90;;;;;;6219715;22;20106;-82
2022/10/22 03:08:59;;;;;;;19.02;12.55;;;12.00;99.90;;;;;;6245168;22;20018;-81
2022/10/22 03:11:25;;;;;;;23.67;11.93;;;12.00;99.90;;;;;;6245191;22;20090;-82
2022/10/22 03:13:50;;;;;;;22.48;12.90;;;12.00;99.90;;;;;;6272206;22;20042;-81
2022/10/22 03:16:16;;;;;;;24.92;13.93;;;12.00;99.90;;;;;;6244982;22;20107;-82
2022/10/22 03:18:42;;;;;;;24.23;13.27;;;12.00;99.90;;;;;;6245133;22;20034;-81
2022/10/22 03:21:43;;;;;;;24.20;12.85;;;12.10;99.90;;;;;;6244843;22;20270;-81
2022/10/22 03:24:13;;;;;;;22.42;13.07;;;12.00;99.90;;;;;;6243817;22;20019;-81
2022/10/22 03:26:40;;;;;;;24.67;13.88;;;12.10;99.90;;;;;;6272371;22;20020;-82
2022/10/22 03:29:09;;;;;;;25.67;13.63;;;12.10;99.90;;;;;;6220013;22;20031;-81
2022/10/22 03:31:34;;;;;;;20.58;13.00;;;12.10;99.90;;;;;;6271563;22;20347;-81
2022/10/22 03:34:00;;;;;;;25.10;13.57;;;12.10;99.90;;;;;;6272675;22;20012;-81
2022/10/22 03:36:26;;;;;;;25.52;12.68;;;12.10;99.90;;;;;;6271952;22;20453;-82
2022/10/22 03:38:51;;;;;;;21.15;12.70;;;12.10;99.90;;;;;;6271796;22;20043;-81
2022/10/22 03:41:17;;;;;;;22.52;13.77;;;12.10;99.90;;;;;;6245063;22;20019;-81
2022/10/22 03:43:48;;;;;;;23.08;13.32;;;12.00;99.90;;;;;;6272451;22;20084;-81
2022/10/22 03:46:14;;;;;;;25.92;12.90;;;12.00;99.90;;;;;;6244986;22;20050;-81
2022/10/22 03:48:39;;;;;;;21.80;13.32;;;12.00;99.90;;;;;;6244833;22;20012;-81
2022/10/22 03:51:06;;;;;;;21.17;12.88;;;12.00;99.90;;;;;;6272514;22;20015;-81
2022/10/22 03:53:31;;;;;;;23.10;13.50;;;12.00;99.90;;;;;;6219711;22;20016;-82
2022/10/22 03:55:57;;;;;;;22.67;14.13;;;12.00;99.90;;;;;;6272023;22;20365;-82
2022/10/22 03:58:23;;;;;;;23.52;13.57;;;12.00;99.90;;;;;;6244314;22;20012;-81
2022/10/22 04:00:48;;;;;;;25.38;14.48;;;11.90;99.90;;;;;;6244737;22;20317;-81
2022/10/22 04:03:14;;;;;;;24.83;14.25;;;11.90;99.90;;;;;;6244885;22;20008;-82
2022/10/22 04:05:40;;;;;;;22.63;13.07;;;12.00;99.90;;;;;;6271892;22;20366;-82
2022/10/22 04:08:05;;;;;;;19.30;12.75;;;11.90;99.90;;;;;;6272658;22;20047;-82
2022/10/22 04:10:31;;;;;;;24.35;13.00;;;11.90;99.90;;;;;;6271263;22;20015;-81
2022/10/22 04:12:56;;;;;;;24.67;12.73;;;11.90;99.90;;;;;;6244558;22;20482;-81
2022/10/22 04:15:25;;;;;;;22.25;13.32;;;11.90;99.90;;;;;;6245234;22;20016;-82
2022/10/22 04:17:51;;;;;;;23.33;15.02;;;11.90;99.90;;;;;;6244683;22;20023;-81
2022/10/22 04:20:17;;;;;;;23.17;14.32;;;11.90;99.90;;;;;;6271181;22;20436;-82
2022/10/22 04:22:42;;;;;;;30.95;15.20;;;11.90;99.90;;;;;;6244704;22;20011;-81
2022/10/22 04:25:08;;;;;;;27.05;14.82;;;11.90;99.90;;;;;;6271713;22;20019;-81
2022/10/22 04:27:34;;;;;;;22.88;14.80;;;11.90;99.90;;;;;;6244400;22;20488;-82
2022/10/22 04:30:00;;;;;;;28.25;14.88;;;11.80;99.90;;;;;;6244414;22;20020;-82
2022/10/22 04:32:26;;;;;;;29.98;14.20;;;11.80;99.90;;;;;;6244196;22;20355;-81
2022/10/22 04:34:52;;;;;;;24.92;15.07;;;11.90;99.90;;;;;;6243964;22;20020;-81
2022/10/22 04:37:18;;;;;;;24.58;13.43;;;11.80;99.90;;;;;;6244244;22;20018;-81
2022/10/22 04:39:43;;;;;;;23.33;14.55;;;11.80;99.90;;;;;;6243982;22;20061;-82
2022/10/22 04:42:10;;;;;;;26.42;14.40;;;11.80;99.90;;;;;;6244578;22;20392;-81
2022/10/22 04:44:36;;;;;;;28.40;16.17;;;11.80;99.90;;;;;;6244627;22;20054;-82
2022/10/22 04:47:01;;;;;;;31.23;15.30;;;11.80;99.90;;;;;;6244616;22;20047;-81
2022/10/22 04:49:27;;;;;;;28.88;15.75;;;11.80;99.90;;;;;;6243853;22;20011;-82
2022/10/22 04:51:53;;;;;;;27.80;15.48;;;11.80;99.90;;;;;;6219419;22;20007;-82
2022/10/22 04:54:18;;;;;;;27.25;15.90;;;11.90;99.90;;;;;;6271331;22;20321;-81
2022/10/22 04:56:44;;;;;;;28.60;15.85;;;11.90;99.90;;;;;;6244881;22;20038;-81
2022/10/22 04:59:11;;;;;;;22.95;14.15;;;11.90;99.90;;;;;;6273638;22;20011;-81
2022/10/22 05:01:39;;;;;;;27.38;15.13;;;11.90;99.90;;;;;;6246388;22;20101;-82
2022/10/22 05:04:06;;;;;;;25.90;14.23;;;12.00;99.90;;;;;;6245945;22;20056;-82
2022/10/22 05:06:34;;;;;;;25.95;14.70;;;12.00;99.90;;;;;;6247078;22;20027;-80
2022/10/22 05:09:03;;;;;;;27.30;14.38;;;12.00;99.90;;;;;;6274300;22;20039;-85
2022/10/22 05:11:33;;;;;;;29.70;15.75;;;12.00;99.90;;;;;;6222321;22;20406;-82
2022/10/22 05:14:00;;;;;;;33.72;16.77;;;12.00;99.90;;;;;;6222122;22;20015;-83
2022/10/22 05:16:28;;;;;;;28.42;16.23;;;12.00;99.90;;;;;;6247572;22;20012;-82
2022/10/22 05:18:54;;;;;;;27.33;15.30;;;12.00;99.90;;;;;;6274172;22;20034;-82
2022/10/22 05:21:21;;;;;;;26.73;15.52;;;11.90;99.90;;;;;;6247687;22;20016;-82
2022/10/22 05:23:48;;;;;;;26.73;16.67;;;11.90;99.90;;;;;;6247468;22;20065;-82
2022/10/22 05:26:17;;;;;;;34.75;16.50;;;11.90;99.90;;;;;;6247014;22;20082;-82
2022/10/22 05:28:43;;;;;;;24.65;14.50;;;11.90;99.90;;;;;;6274713;22;20023;-83
2022/10/22 05:31:11;;;;;;;30.60;17.63;;;11.90;99.90;;;;;;6274739;22;20545;-82
2022/10/22 05:33:37;;;;;;;29.65;17.10;;;11.90;99.90;;;;;;6274639;22;20007;-82
2022/10/22 05:36:04;;;;;;;30.17;16.02;;;11.90;99.90;;;;;;6221097;22;20047;-83
2022/10/22 05:38:32;;;;;;;27.73;15.98;;;11.90;99.90;;;;;;6273877;22;20007;-83
2022/10/22 05:41:06;;;;;;;24.85;14.93;;;11.90;99.90;;;;;;6274788;22;20069;-82
2022/10/22 05:43:32;;;;;;;25.38;16.88;;;11.90;99.90;;;;;;6246796;22;20004;-83
2022/10/22 05:46:04;;;;;;;28.98;17.80;;;11.90;99.90;;;;;;6248404;22;20706;-83
2022/10/22 05:48:30;;;;;;;28.90;17.35;;;11.90;99.90;;;;;;6274269;22;20328;-83
2022/10/22 05:50:55;;;;;;;29.50;16.23;;;11.90;99.90;;;;;;6246030;22;20016;-83
2022/10/22 05:53:21;;;;;;;29.42;15.52;;;11.90;99.90;;;;;;6247280;22;20018;-83
2022/10/22 05:55:47;;;;;;;28.42;16.88;;;11.90;99.90;;;;;;6247497;22;20019;-83
2022/10/22 05:58:13;;;;;;;23.65;15.93;;;11.90;99.90;;;;;;6275034;22;20016;-83
2022/10/22 06:00:39;;;;;;;29.80;16.80;;;12.00;99.90;;;;;;6247530;22;20015;-83
2022/10/22 06:03:05;;;;;;;27.50;14.90;;;11.90;99.90;;;;;;6246792;22;20011;-83
2022/10/22 06:05:35;;;;;;;28.52;15.60;;;11.90;99.90;;;;;;6246715;22;20047;-83
2022/10/22 06:08:01;;;;;;;30.10;15.30;;;12.00;99.90;;;;;;6274628;22;20046;-83
2022/10/22 06:10:27;;;;;;;26.80;15.15;;;12.00;99.90;;;;;;6246945;22;20039;-83
2022/10/22 06:12:52;;;;;;;28.65;15.55;;;12.00;99.90;;;;;;6274355;22;20069;-82
2022/10/22 06:15:19;;;;;;;27.48;14.88;;;12.00;99.90;;;;;;6273633;22;20439;-83
2022/10/22 06:17:45;;;;;;;26.73;16.13;;;12.00;99.90;;;;;;6246051;22;20024;-83
2022/10/22 06:20:12;;;;;;;34.88;15.93;;;12.00;99.90;;;;;;6273936;22;20019;-83
2022/10/22 06:22:37;;;;;;;24.55;14.88;;;12.10;99.90;;;;;;6273712;22;20008;-83
2022/10/22 06:25:04;;;;;;;24.75;15.05;;;12.00;99.90;;;;;;6246698;22;20467;-83
2022/10/22 06:27:30;;;;;;;26.35;15.35;;;12.10;99.90;;;;;;6246915;22;20077;-84
2022/10/22 06:29:56;;;;;;;23.25;14.60;;;12.10;99.90;;;;;;6221185;22;20023;-84
2022/10/22 06:32:21;;;;;;;26.63;16.65;;;12.10;99.90;;;;;;6246543;22;20050;-84
2022/10/22 06:34:49;;;;;;;32.92;15.25;;;12.10;99.90;;;;;;6247274;22;20020;-84
2022/10/22 06:37:15;;;;;;;22.52;13.73;;;12.10;99.90;;;;;;6220438;22;20016;-84
2022/10/22 06:39:41;;;;;;;28.52;15.00;;;12.10;99.90;;;;;;6273333;22;20004;-84
2022/10/22 06:42:06;;;;;;;22.55;13.07;;;12.10;99.90;;;;;;6247577;22;20093;-83
2022/10/22 06:44:32;;;;;;;26.65;14.23;;;12.20;99.90;;;;;;6273570;22;20126;-83
2022/10/22 06:46:58;;;;;;;21.98;14.27;;;12.10;99.90;;;;;;6245658;22;20043;-83
2022/10/22 06:49:23;;;;;;;24.33;14.80;;;12.10;99.90;;;;;;6246658;22;20085;-83
2022/10/22 06:51:51;;;;;;;24.73;13.30;;;12.20;99.90;;;;;;6273137;22;20497;-83
2022/10/22 06:54:17;;;;;;;24.15;13.50;;;12.20;99.90;;;;;;6273457;22;20010;-83
2022/10/22 06:56:42;;;;;;;19.35;12.80;;;12.20;99.90;;;;;;6273663;22;20047;-82
2022/10/22 06:59:08;;;;;;;23.85;13.05;;;12.20;99.90;;;;;;6220832;22;20094;-83
2022/10/22 07:01:35;;;;;;;22.95;13.68;;;12.20;99.90;;;;;;6220015;22;20430;-84
2022/10/22 07:04:01;;;;;;;23.13;13.05;;;12.50;99.90;;;;;;6246323;22;20012;-83
2022/10/22 07:06:28;;;;;;;28.08;13.27;;;12.30;99.90;;;;;;6273821;22;20039;-83
2022/10/22 07:08:55;;;;;;;25.83;12.80;;;12.30;99.90;;;;;;6244815;22;20026;-83
2022/10/22 07:11:29;;;;;;;20.75;12.73;;;12.40;99.90;;;;;;6273458;22;20018;-84
2022/10/22 07:13:57;;;;;;;23.05;11.93;;;12.40;99.90;;;;;;6244733;22;20054;-84
2022/10/22 07:16:23;;;;;;;23.17;11.20;;;12.50;99.90;;;;;;6272676;22;20069;-84
2022/10/22 07:18:49;;;;;;;25.67;12.55;;;12.50;99.90;;;;;;6245971;22;20015;-84
2022/10/22 07:21:17;;;;;;;21.25;12.48;;;12.70;99.90;;;;;;6221011;22;20012;-83
2022/10/22 07:23:44;;;;;;;19.33;12.85;;;12.50;99.90;;;;;;6272544;22;20007;-83
2022/10/22 07:26:12;;;;;;;24.63;11.57;;;12.50;99.90;;;;;;6245863;22;20160;-83
2022/10/22 07:28:39;;;;;;;19.48;12.20;;;12.60;99.90;;;;;;6245373;22;20343;-83
2022/10/22 07:31:08;;;;;;;20.90;11.57;;;12.70;99.90;;;;;;6220232;22;20011;-82
2022/10/22 07:33:34;;;;;;;19.08;11.68;;;12.60;99.90;;;;;;6219913;22;20019;-82
2022/10/22 07:36:03;;;;;;;20.65;10.43;;;12.60;99.90;;;;;;6244940;22;20011;-81
2022/10/22 07:38:30;;;;;;;17.58;10.35;;;12.60;99.90;;;;;;6244656;22;20024;-82
2022/10/22 07:40:57;;;;;;;23.42;11.02;;;12.70;99.90;;;;;;6244933;22;20011;-82
2022/10/22 07:43:22;;;;;;;21.05;11.32;;;12.70;99.90;;;;;;6243791;22;20012;-82
2022/10/22 07:45:48;;;;;;;20.30;10.30;;;12.70;99.90;;;;;;6244046;22;20012;-82
2022/10/22 07:48:14;;;;;;;17.85;10.77;;;12.70;99.90;;;;;;6272030;22;20305;-82
2022/10/22 07:50:40;;;;;;;18.33;9.35;;;12.80;99.90;;;;;;6244195;22;20086;-82
2022/10/22 07:53:06;;;;;;;19.88;10.18;;;12.80;99.90;;;;;;6271806;22;20058;-82
2022/10/22 07:55:32;;;;;;;17.63;9.93;;;12.90;99.90;;;;;;6244849;22;20019;-82
2022/10/22 07:57:58;;;;;;;17.35;9.75;;;12.90;99.90;;;;;;6271657;22;20016;-82
2022/10/22 08:00:23;;;;;;;18.92;8.93;;;13.00;99.90;;;;;;6245250;22;20363;-83
2022/10/22 08:02:49;;;;;;;16.70;8.63;;;13.00;99.90;;;;;;6217833;22;20016;-82
2022/10/22 08:05:15;;;;;;;16.80;9.20;;;13.10;99.90;;;;;;6244628;22;20015;-82
2022/10/22 08:07:41;;;;;;;16.17;8.15;;;13.10;99.90;;;;;;6220394;22;20122;-84
2022/10/22 08:10:08;;;;;;;18.15;7.55;;;13.10;99.90;;;;;;6245158;22;20042;-84
2022/10/22 08:12:34;;;;;;;14.40;7.47;;;13.20;99.90;;;;;;6271883;22;20057;-83
2022/10/22 08:15:00;;;;;;;15.27;8.00;;;13.20;99.90;;;;;;6245880;22;20023;-84
2022/10/22 08:17:26;;;;;;;16.00;8.50;;;13.20;99.90;;;;;;6245507;22;20008;-84
2022/10/22 08:19:52;;;;;;;22.35;7.30;;;13.30;99.90;;;;;;6244776;22;20043;-84
2022/10/22 08:22:18;;;;;;;11.50;6.95;;;13.30;99.90;;;;;;6271796;22;20015;-84
2022/10/22 08:24:44;;;;;;;17.63;8.50;;;13.40;99.90;;;;;;6244809;22;20027;-84
2022/10/22 08:27:09;;;;;;;12.80;7.00;;;13.40;99.90;;;;;;6271851;22;20008;-83
2022/10/22 08:29:35;;;;;;;19.65;7.68;;;13.40;99.90;;;;;;6271719;22;20208;-84
2022/10/22 08:32:01;;;;;;;19.60;8.07;;;13.50;99.90;;;;;;6244870;22;20016;-84
2022/10/22 08:34:28;;;;;;;16.80;7.15;;;13.50;99.90;;;;;;6245059;22;20023;-84
2022/10/22 08:36:54;;;;;;;16.15;6.93;;;13.50;99.90;;;;;;6214288;23;20062;-84
2022/10/22 08:39:20;;;;;;;14.43;6.30;;;13.60;99.90;;;;;;6239845;23;20748;-84
2022/10/22 08:41:54;;;;;;;14.88;6.80;;;13.60;99.90;;;;;;6239121;23;20348;-84
2022/10/22 08:44:27;;;;;;;17.75;6.75;;;13.60;99.90;;;;;;6239529;23;20440;-84
2022/10/22 08:47:31;;;;;;;17.63;5.85;;;13.70;99.90;;;;;;6240470;23;20452;-84
2022/10/22 08:49:59;;;;;;;15.57;5.88;;;13.70;99.90;;;;;;6241897;23;20020;-84
2022/10/22 08:52:25;;;;;;;15.48;6.22;;;13.80;99.90;;;;;;6241326;22;20031;-84
2022/10/22 08:54:53;;;;;;;15.43;6.07;;;13.80;99.90;;;;;;6241550;23;20015;-84
2022/10/22 08:57:50;;;;;;;15.40;5.82;;;13.90;99.90;;;;;;6240432;23;20020;-84
2022/10/22 09:00:37;;;;;;;16.00;5.95;;;13.90;99.90;;;;;;6239445;23;20016;-84
2022/10/22 09:03:32;;;;;;;17.70;5.85;;;14.10;99.90;;;;;;6239777;23;20031;-84
2022/10/22 09:06:20;;;;;;;13.38;6.53;;;14.00;99.90;;;;;;6214293;23;20019;-84
2022/10/22 09:08:47;;;;;;;13.10;5.22;;;14.10;99.90;;;;;;6239811;23;20027;-84
2022/10/22 09:11:28;;;;;;;15.73;5.70;;;14.20;99.90;;;;;;6239450;23;20019;-84
2022/10/22 09:13:56;;;;;;;14.05;5.30;;;14.30;99.90;;;;;;6214039;23;20142;-86
2022/10/22 09:16:40;;;;;;;15.63;5.72;;;14.30;99.90;;;;;;6240554;23;20012;-85
2022/10/22 09:19:27;;;;;;;14.10;5.35;;;14.50;99.90;;;;;;6239384;23;20020;-83
2022/10/22 09:22:21;;;;;;;13.05;4.70;;;14.50;99.90;;;;;;6242164;23;20087;-84
2022/10/22 09:24:51;;;;;;;16.05;4.65;;;14.60;99.90;;;;;;6238232;23;20345;-82
2022/10/22 09:27:26;;;;;;;12.70;4.05;;;14.70;99.90;;;;;;6240921;22;20448;-82
2022/10/22 09:29:52;;;;;;;13.80;4.70;;;14.90;99.90;;;;;;6239680;23;20154;-82
2022/10/22 09:32:18;;;;;;;16.60;5.00;;;15.00;99.90;;;;;;6214322;23;20456;-83
2022/10/22 09:34:48;;;;;;;15.88;5.00;;;15.20;99.90;;;;;;6240650;22;20015;-82
2022/10/22 09:37:17;;;;;;;15.27;4.68;;;15.30;99.90;;;;;;6238818;23;20012;-82
2022/10/22 09:39:45;;;;;;;14.73;4.03;;;15.40;99.90;;;;;;6238488;23;20012;-82
2022/10/22 09:42:15;;;;;;;17.30;4.50;;;15.40;99.90;;;;;;6241093;22;20008;-83
2022/10/22 09:44:41;;;;;;;16.13;4.00;;;15.40;99.90;;;;;;6215988;23;20015;-83
2022/10/22 09:47:27;;;;;;;15.07;4.28;;;15.50;99.90;;;;;;6243489;22;20016;-83
2022/10/22 09:50:08;;;;;;;13.27;3.83;;;15.70;99.90;;;;;;6242867;22;20008;-83
2022/10/22 09:52:34;;;;;;;12.80;3.97;;;15.70;99.90;;;;;;6241269;23;20395;-82
2022/10/22 09:55:13;;;;;;;14.98;3.72;;;15.80;99.90;;;;;;6240426;23;20020;-82
2022/10/22 09:57:38;;;;;;;13.38;3.80;;;15.80;99.90;;;;;;6240595;23;20040;-82
2022/10/22 10:00:08;;;;;;;12.98;3.70;;;15.80;99.90;;;;;;6214986;23;20019;-82
2022/10/22 10:02:34;;;;;;;8.80;3.33;;;15.80;99.90;;;;;;6240530;23;20452;-82
2022/10/22 10:05:02;;;;;;;12.48;3.60;;;15.80;99.90;;;;;;6241390;23;20043;-82
2022/10/22 10:07:32;;;;;;;16.20;3.88;;;15.80;99.90;;;;;;6242625;23;20016;-82
2022/10/22 10:09:58;;;;;;;9.40;3.15;;;15.80;99.90;;;;;;6240541;23;20535;-81
2022/10/22 10:13:05;;;;;;;7.95;3.67;;;15.80;99.90;;;;;;6240914;23;20023;-86
2022/10/22 10:15:41;;;;;;;10.85;4.25;;;15.80;99.90;;;;;;6153354;23;20017;-84
2022/10/22 10:18:29;;;;;;;10.23;4.32;;;15.70;99.90;;;;;;6154473;23;20032;-83
2022/10/22 10:21:05;;;;;;;9.85;4.07;;;15.70;99.90;;;;;;6179382;23;20019;-83
2022/10/22 10:23:52;;;;;;;13.38;4.32;;;15.70;99.90;;;;;;6153612;23;20052;-82
2022/10/22 10:26:36;;;;;;;12.50;4.15;;;15.70;99.90;;;;;;6154352;23;20013;-82
2022/10/22 10:29:04;;;;;;;11.75;4.97;;;15.70;99.90;;;;;;6179930;23;20075;-82
2022/10/22 10:31:48;;;;;;;11.65;4.78;;;15.70;99.90;;;;;;6154287;23;20084;-82
2022/10/22 10:34:19;;;;;;;12.52;4.63;;;15.70;99.90;;;;;;6179469;23;20436;-82
2022/10/22 10:37:14;;;;;;;13.10;5.28;;;15.80;99.90;;;;;;6154220;23;20025;-82
2022/10/22 10:39:43;;;;;;;;;;;15.90;99.90;;;;;;6178710;23;20013;-81
2022/10/22 10:42:29;;;;;;;12.90;4.78;;;15.80;99.90;;;;;;6179000;23;19950;-81
2022/10/22 10:45:01;;;;;;;12.95;4.93;;;15.80;99.90;;;;;;6178465;23;20477;-80
2022/10/22 10:48:07;;;;;;;14.30;5.82;;;15.90;99.90;;;;;;6238063;23;20020;-80
2022/10/22 10:50:45;;;;;;;13.18;4.63;;;15.90;99.90;;;;;;6200940;23;20325;-81
2022/10/22 10:53:41;;;;;;;15.10;5.22;;;16.00;99.90;;;;;;6239831;23;20061;-82
2022/10/22 10:56:26;;;;;;;12.57;4.45;;;16.10;99.90;;;;;;6241695;22;20016;-80
2022/10/22 10:59:12;;;;;;;11.05;4.63;;;16.10;99.90;;;;;;6240479;22;20369;-81
2022/10/22 11:02:03;;;;;;;16.38;5.00;;;16.10;99.90;;;;;;6240898;22;20515;-79
2022/10/22 11:04:47;;;;;;;15.95;5.30;;;16.10;99.90;;;;;;6214226;23;20022;-80
2022/10/22 11:07:18;;;;;;;10.50;4.97;;;16.10;99.90;;;;;;6239633;23;20031;-80
2022/10/22 11:09:56;;;;;;;10.85;4.90;;;16.10;99.90;;;;;;6241683;22;20562;-80
2022/10/22 11:12:27;;;;;;;11.88;5.07;;;16.00;99.90;;;;;;6239965;23;20083;-80
2022/10/22 11:15:10;;;;;;;15.63;4.93;;;16.00;99.90;;;;;;6241996;22;20062;-80
2022/10/22 11:17:39;;;;;;;17.17;5.82;;;15.90;99.90;;;;;;6239847;22;20016;-82
2022/10/22 11:20:31;;;;;;;10.57;5.25;;;15.90;99.90;;;;;;6239186;23;20020;-80
2022/10/22 11:23:03;;;;;;;11.05;4.95;;;15.90;99.90;;;;;;6238940;23;20455;-81
2022/10/22 11:25:34;;;;;;;12.55;5.28;;;15.90;99.90;;;;;;6241510;22;20317;-79
2022/10/22 11:28:13;;;;;;;13.35;5.55;;;15.90;99.90;;;;;;6239692;23;20145;-81
2022/10/22 11:30:42;;;;;;;17.27;6.30;;;15.80;99.90;;;;;;6241782;22;20034;-81
2022/10/22 11:33:17;;;;;;;12.70;6.20;;;15.70;99.90;;;;;;6241705;22;20016;-81
2022/10/22 11:35:45;;;;;;;17.08;7.25;;;15.70;99.90;;;;;;6240881;22;20019;-80
2022/10/22 11:38:24;;;;;;;18.17;6.80;;;15.60;99.90;;;;;;6271209;22;20381;-81
2022/10/22 11:41:01;;;;;;;16.05;6.70;;;15.70;99.90;;;;;;6272032;22;20074;-81
2022/10/22 11:43:58;;;;;;;19.58;7.65;;;15.60;99.90;;;;;;6244296;22;20053;-81
2022/10/22 11:46:25;;;;;;;14.55;6.85;;;15.60;99.90;;;;;;6245225;22;20661;-81
2022/10/22 11:49:15;;;;;;;13.43;6.88;;;15.60;99.90;;;;;;6244907;22;20012;-82
2022/10/22 11:51:43;;;;;;;13.73;7.40;;;15.60;99.90;;;;;;6271394;22;20008;-82
2022/10/22 11:54:33;;;;;;;15.30;6.50;;;15.70;99.90;;;;;;6270880;22;20069;-82
2022/10/22 11:57:16;;;;;;;15.27;6.97;;;15.90;99.90;;;;;;6271652;22;20033;-82
2022/10/22 11:59:51;;;;;;;14.23;5.80;;;16.00;99.90;;;;;;6271227;22;20047;-82
2022/10/22 12:02:38;;;;;;;12.48;6.10;;;16.20;99.90;;;;;;6244368;22;20449;-82
2022/10/22 12:05:22;;;;;;;9.00;5.13;;;16.30;99.90;;;;;;6244209;22;20065;-82
2022/10/22 12:08:09;;;;;;;12.87;5.33;;;16.40;99.90;;;;;;6244212;22;20043;-81
2022/10/22 12:11:04;;;;;;;10.65;5.00;;;16.40;99.90;;;;;;6271731;22;20223;-83
2022/10/22 12:13:31;;;;;;;;;;;16.40;99.90;;;;;;6244764;22;20043;-85
2022/10/22 12:16:01;;;;;;;10.73;5.22;;;16.40;99.90;;;;;;6244578;22;19911;-84
2022/10/22 12:18:35;;;;;;;8.38;4.75;;;16.30;99.90;;;;;;6219127;22;20026;-83
2022/10/22 12:21:01;;;;;;;;;;;16.30;99.90;;;;;;6244235;22;20014;-84
2022/10/22 12:23:30;;;;;;;14.95;5.60;;;16.20;99.90;;;;;;6271552;22;19938;-86
2022/10/22 12:25:57;;;;;;;11.13;5.40;;;16.20;99.90;;;;;;6271839;22;20386;-83
2022/10/22 12:28:22;;;;;;;12.82;5.53;;;16.20;99.90;;;;;;6272345;22;20087;-82
2022/10/22 12:30:48;;;;;;;17.85;6.30;;;16.20;99.90;;;;;;6271523;22;20047;-83
2022/10/22 12:33:20;;;;;;;13.15;5.20;;;16.10;99.90;;;;;;6245159;22;20465;-82
2022/10/22 12:35:48;;;;;;;9.38;4.55;;;16.10;99.90;;;;;;6244634;22;20125;-83
2022/10/22 12:38:20;;;;;;;12.32;4.75;;;16.00;99.90;;;;;;6244967;22;20429;-83
2022/10/22 12:40:47;;;;;;;17.10;4.47;;;16.00;99.90;;;;;;6219301;22;20012;-83
2022/10/22 12:43:23;;;;;;;11.50;4.55;;;16.00;99.90;;;;;;6245423;22;20011;-83
2022/10/22 12:45:50;;;;;;;13.48;4.93;;;16.00;99.90;;;;;;6244807;22;20022;-83
2022/10/22 12:48:32;;;;;;;12.13;4.50;;;16.00;99.90;;;;;;6218399;22;20050;-83
2022/10/22 12:51:00;;;;;;;14.77;4.88;;;16.00;99.90;;;;;;6245028;22;20354;-83